Hlavní strana
METAR-TAF:

METAR-TAF

Letiště :

Kilimandžáro, Tanzanie

zeměpisná šířka: 03-25S, zeměpisná délka: 037-04E, výška: 891 m

Aktuální stav počasí

Zpráva byla vytvořena před 36 minutami, v 20:00 UTC
Západojihozápadní vítr 5 kt
Teplota 22°C
Vlhkost vzduchu 100%
Tlak 1019 hPa
Viditelnost 10 km a více
Skoro jasno ve výšce 2400 ft, Cumulonimbus.
Oblačno až skoro zataženo ve výšce 2600 ft

METAR: HTKJ 252000Z 24005KT 9999 FEW024CB BKN026 22/22 Q1019 NOSIG

Čas: 23:36 (20:36 UTC)

Předpověď počasí

Zpráva byla vytvořena před 3 hodinami a 36 minutami, v 17:00 UTC
Předpověď platná od 25 v 18 UTC do 26 v 18 UTC
Východní vítr 5 kt
Viditelnost 10 km a více
Skoro jasno ve výšce 2600 ft, Cumulonimbus.
Oblačno až skoro zataženo ve výšce 2700 ft
Změna
od 25 v 21 UTC do 25 v 23 UTC
Oblačno až skoro zataženo ve výšce 2400 ft

TAF: HTKJ 251700Z 2518/2618 09005KT 9999 FEW026CB BKN027 BECMG 2521/2523 BKN024

Stav a předpovědi počasí z více než 4 000 letišť (zprávy METAR a TAF).

Červené a žluté tečky na mapě představují dostupné meteorologické stanice.

Když kurzor umístíte na tečku, zobrazí se název stanice.

Pak kliknutím zobrazíte stav a předpověď počasí.

Chcete-li změnit mapu, kliknutím na zelené tlačítko se znaménkem +mapu přiblížíte, kliknutím na zelené tlačítko se znaménkem – mapu oddálíte a kliknutím na zelené šipky přejdete na sousední mapy.


METAR-TAF: